Preview of NWS' New Version of Forecast
This preview is not operational and should not be used for support decisions.

Terminal Aerodrome Forecast (TAF)

Issued by National Weather Service (NWS)

                            
000
FTUS42 KMFL 140530
TAFMIA
TAF
KMIA 140530Z 1406/1512 10006KT P6SM FEW015 FEW025 SCT250
     FM141700 11010KT P6SM SCT025
     FM150300 10005KT P6SM SCT035=